Time;durP1;ratioP1;P1;durP2;ratioP2;P2;SDS_P1;SDS_P2;PMS_P1;PMS_P2;Temp;Humidity;BMP_temperature;BMP_pressure;BME280_temperature;BME280_humidity;BME280_pressure;Samples;Min_cycle;Max_cycle;Signal;HPM_P1;HPM_P2
2021/07/20 00:01:35;;;;;;;16.13;14.43;;;20.20;99.90;;;;;;5059046;28;20871;-60
2021/07/20 00:04:01;;;;;;;15.53;13.90;;;20.10;99.90;;;;;;5069585;28;20600;-60
2021/07/20 00:06:27;;;;;;;15.20;13.30;;;20.10;99.90;;;;;;5064956;28;20435;-60
2021/07/20 00:08:52;;;;;;;15.37;13.70;;;20.10;99.90;;;;;;5066303;28;20181;-61
2021/07/20 00:11:18;;;;;;;16.80;12.50;;;20.20;99.90;;;;;;5057961;28;20467;-61
2021/07/20 00:13:44;;;;;;;15.17;13.30;;;20.10;99.90;;;;;;5066159;28;20705;-60
2021/07/20 00:16:10;;;;;;;17.60;13.53;;;20.00;99.90;;;;;;5064563;28;20597;-60
2021/07/20 00:18:36;;;;;;;16.80;13.75;;;20.00;99.90;;;;;;5062188;28;20181;-60
2021/07/20 00:21:07;;;;;;;16.52;14.80;;;20.00;99.90;;;;;;5054306;28;20227;-60
2021/07/20 00:23:34;;;;;;;16.90;13.68;;;20.00;99.90;;;;;;5058831;28;20196;-60
2021/07/20 00:25:59;;;;;;;16.17;14.35;;;20.00;99.90;;;;;;5068390;28;20310;-60
2021/07/20 00:28:25;;;;;;;17.80;13.80;;;19.80;99.90;;;;;;5060202;28;20275;-59
2021/07/20 00:30:51;;;;;;;14.97;12.93;;;19.80;99.90;;;;;;5061821;28;20217;-61
2021/07/20 00:33:18;;;;;;;16.60;14.20;;;19.80;99.90;;;;;;5053832;28;20182;-61
2021/07/20 00:35:44;;;;;;;17.60;14.55;;;19.80;99.90;;;;;;5056499;28;20189;-59
2021/07/20 00:38:15;;;;;;;19.35;15.70;;;19.90;99.90;;;;;;5067242;28;20238;-60
2021/07/20 00:40:41;;;;;;;18.17;14.55;;;19.90;99.90;;;;;;5059274;28;20571;-60
2021/07/20 00:43:06;;;;;;;16.90;14.03;;;19.80;99.90;;;;;;5057903;28;20178;-60
2021/07/20 00:45:33;;;;;;;16.83;14.30;;;19.80;99.90;;;;;;5055717;28;20844;-59
2021/07/20 00:47:59;;;;;;;16.73;14.73;;;19.80;99.90;;;;;;5059299;28;20867;-59
2021/07/20 00:50:38;;;;;;;15.38;13.77;;;19.90;99.90;;;;;;5059516;28;20292;-60
2021/07/20 00:53:05;;;;;;;17.25;14.40;;;19.80;99.90;;;;;;5053190;28;20213;-60
2021/07/20 00:55:35;;;;;;;16.40;14.23;;;19.90;99.90;;;;;;5059343;28;20725;-60
2021/07/20 00:58:02;;;;;;;16.08;13.75;;;19.90;99.90;;;;;;5063244;28;20538;-60
2021/07/20 01:00:28;;;;;;;17.83;15.93;;;19.90;99.90;;;;;;5061145;28;20616;-60
2021/07/20 01:02:54;;;;;;;17.03;14.20;;;19.90;99.90;;;;;;5065504;28;20186;-59
2021/07/20 01:05:23;;;;;;;18.70;15.52;;;20.00;99.90;;;;;;5063809;28;20642;-61
2021/07/20 01:07:49;;;;;;;18.17;14.57;;;20.10;99.90;;;;;;5056239;28;20198;-60
2021/07/20 01:10:16;;;;;;;16.27;14.57;;;20.00;99.90;;;;;;5061446;28;20201;-60
2021/07/20 01:12:44;;;;;;;16.95;15.15;;;19.70;99.90;;;;;;5058843;28;20178;-59
2021/07/20 01:15:11;;;;;;;18.27;15.38;;;19.60;99.90;;;;;;5055844;28;20237;-61
2021/07/20 01:17:38;;;;;;;14.30;12.80;;;19.40;99.90;;;;;;5063778;28;20783;-60
2021/07/20 01:20:16;;;;;;;16.70;13.70;;;19.10;99.90;;;;;;5067335;28;20696;-61
2021/07/20 01:22:51;;;;;;;16.15;14.30;;;18.80;99.90;;;;;;5062096;28;20204;-62
2021/07/20 01:25:17;;;;;;;17.40;14.07;;;18.80;99.90;;;;;;5062011;28;20184;-62
2021/07/20 01:27:52;;;;;;;24.30;14.97;;;18.90;99.90;;;;;;5058326;28;20189;-63
2021/07/20 01:30:18;;;;;;;17.23;13.77;;;18.70;99.90;;;;;;5055714;28;20200;-61
2021/07/20 01:32:45;;;;;;;19.70;14.73;;;18.70;99.90;;;;;;5056771;28;20173;-62
2021/07/20 01:35:12;;;;;;;16.73;13.02;;;18.80;99.90;;;;;;5058265;28;20675;-61
2021/07/20 01:37:39;;;;;;;16.67;13.90;;;18.50;99.90;;;;;;5062247;28;20177;-61
2021/07/20 01:40:07;;;;;;;16.10;14.02;;;18.60;99.90;;;;;;5054401;28;20667;-62
2021/07/20 01:42:33;;;;;;;17.85;14.63;;;18.60;99.90;;;;;;5062258;28;20193;-61
2021/07/20 01:45:00;;;;;;;17.20;13.23;;;18.40;99.90;;;;;;5054530;28;20192;-61
2021/07/20 01:47:27;;;;;;;15.98;13.50;;;18.50;99.90;;;;;;5060390;28;20227;-63
2021/07/20 01:49:56;;;;;;;16.40;13.70;;;18.40;99.90;;;;;;5057573;28;20220;-62
2021/07/20 01:52:22;;;;;;;15.93;13.25;;;18.50;99.90;;;;;;5056059;28;20185;-62
2021/07/20 01:54:48;;;;;;;15.48;13.48;;;18.60;99.90;;;;;;5061256;28;20213;-64
2021/07/20 01:57:14;;;;;;;16.05;13.00;;;18.60;99.90;;;;;;5049604;28;20184;-60
2021/07/20 01:59:41;;;;;;;17.17;13.93;;;18.60;99.90;;;;;;5058658;28;20572;-60
2021/07/20 02:02:16;;;;;;;16.63;13.48;;;18.80;99.90;;;;;;5059744;28;20443;-59
2021/07/20 02:09:56;;;;;;;15.50;13.35;;;18.70;99.90;;;;;;5058232;28;20277;-60
2021/07/20 02:12:32;;;;;;;15.63;13.23;;;18.60;99.90;;;;;;5060041;28;20645;-61
2021/07/20 02:15:00;;;;;;;15.00;12.32;;;18.50;99.90;;;;;;5064419;28;20275;-60
2021/07/20 02:17:27;;;;;;;16.60;13.23;;;18.50;99.90;;;;;;5065612;28;20185;-59
2021/07/20 02:20:04;;;;;;;17.50;13.00;;;18.40;99.90;;;;;;5065535;28;20273;-61
2021/07/20 02:22:31;;;;;;;16.00;13.18;;;18.50;99.90;;;;;;5066641;28;20188;-61
2021/07/20 02:24:58;;;;;;;16.08;13.80;;;18.50;99.90;;;;;;5058568;28;20185;-61
2021/07/20 02:27:25;;;;;;;16.45;14.02;;;18.40;99.90;;;;;;5057078;28;20185;-64
2021/07/20 02:29:54;;;;;;;15.35;12.65;;;18.30;99.90;;;;;;5061083;28;20220;-61
2021/07/20 02:32:21;;;;;;;14.38;12.68;;;18.40;99.90;;;;;;5057603;28;20545;-59
2021/07/20 02:34:47;;;;;;;17.65;13.10;;;18.30;99.90;;;;;;5064844;28;20254;-60
2021/07/20 02:37:15;;;;;;;16.25;13.60;;;18.10;99.90;;;;;;5059472;28;20174;-59
2021/07/20 02:39:41;;;;;;;16.17;13.10;;;18.00;99.90;;;;;;5062461;28;20201;-60
2021/07/20 02:42:08;;;;;;;15.10;13.43;;;18.10;99.90;;;;;;5060581;28;20177;-59
2021/07/20 02:44:34;;;;;;;15.77;13.38;;;17.90;99.90;;;;;;5065669;28;20184;-61
2021/07/20 02:47:02;;;;;;;15.95;13.88;;;17.80;99.90;;;;;;5063375;28;20664;-60
2021/07/20 02:49:30;;;;;;;18.08;14.50;;;17.90;99.90;;;;;;5058380;28;20236;-61
2021/07/20 02:51:57;;;;;;;15.52;13.07;;;18.00;99.90;;;;;;5055216;28;20207;-60
2021/07/20 02:54:25;;;;;;;14.90;12.68;;;18.30;99.90;;;;;;5059659;28;20184;-61
2021/07/20 02:56:51;;;;;;;14.05;12.65;;;18.00;99.90;;;;;;5065646;28;20215;-59
2021/07/20 02:59:20;;;;;;;15.03;12.63;;;18.00;99.90;;;;;;5057645;28;20200;-60
2021/07/20 03:01:46;;;;;;;16.35;14.27;;;17.90;99.90;;;;;;5056026;28;20946;-60
2021/07/20 03:04:12;;;;;;;17.08;12.85;;;17.80;99.90;;;;;;5059787;28;20654;-60
2021/07/20 03:06:42;;;;;;;15.60;13.33;;;17.90;99.90;;;;;;5063215;28;20190;-61
2021/07/20 03:09:11;;;;;;;15.35;13.43;;;17.80;99.90;;;;;;5061641;28;20559;-59
2021/07/20 03:11:39;;;;;;;15.45;12.48;;;17.70;99.90;;;;;;5061580;28;20202;-59
2021/07/20 03:14:10;;;;;;;15.38;13.27;;;17.70;99.90;;;;;;5057246;28;20292;-60
2021/07/20 03:16:38;;;;;;;16.27;13.05;;;17.70;99.90;;;;;;5058911;28;20177;-60
2021/07/20 03:19:08;;;;;;;16.52;13.00;;;17.50;99.90;;;;;;5060012;28;20193;-60
2021/07/20 03:21:37;;;;;;;14.77;12.57;;;17.60;99.90;;;;;;5056286;28;20177;-60
2021/07/20 03:24:03;;;;;;;16.10;12.73;;;17.50;99.90;;;;;;5061759;28;20190;-60
2021/07/20 03:26:29;;;;;;;19.70;13.82;;;17.60;99.90;;;;;;5061059;28;20209;-60
2021/07/20 03:28:56;;;;;;;16.00;13.00;;;17.70;99.90;;;;;;5052779;28;20173;-59
2021/07/20 03:31:22;;;;;;;17.83;13.30;;;17.70;99.90;;;;;;5057410;28;20748;-59
2021/07/20 03:33:49;;;;;;;14.93;11.40;;;17.50;99.90;;;;;;5060237;28;20223;-60
2021/07/20 03:36:15;;;;;;;15.07;11.98;;;17.70;99.90;;;;;;5055259;28;20185;-59
2021/07/20 03:38:42;;;;;;;14.80;12.63;;;17.60;99.90;;;;;;5056278;28;20185;-59
2021/07/20 03:41:09;;;;;;;17.05;12.00;;;17.50;99.90;;;;;;5058793;28;20205;-60
2021/07/20 03:43:36;;;;;;;14.85;12.55;;;17.40;99.90;;;;;;5058137;28;20185;-60
2021/07/20 03:46:02;;;;;;;15.10;12.60;;;17.30;99.90;;;;;;5066312;28;20196;-59
2021/07/20 03:48:31;;;;;;;15.95;12.25;;;17.10;99.90;;;;;;5064819;28;20667;-60
2021/07/20 03:50:58;;;;;;;15.32;13.75;;;17.20;99.90;;;;;;5063831;28;20646;-60
2021/07/20 03:53:27;;;;;;;14.93;12.13;;;17.30;99.90;;;;;;5063641;28;20181;-59
2021/07/20 03:55:57;;;;;;;16.77;13.23;;;17.30;99.90;;;;;;5059353;28;20189;-60
2021/07/20 03:58:23;;;;;;;17.50;14.00;;;17.20;99.90;;;;;;5057069;28;20176;-59
2021/07/20 04:00:52;;;;;;;14.70;13.17;;;17.20;99.90;;;;;;5057207;28;20582;-61
2021/07/20 04:03:21;;;;;;;17.70;13.05;;;17.50;99.90;;;;;;5064292;28;20804;-60
2021/07/20 04:05:50;;;;;;;16.83;13.75;;;17.30;99.90;;;;;;5062384;28;20283;-63
2021/07/20 04:08:20;;;;;;;15.95;12.50;;;17.60;99.90;;;;;;5057229;28;20191;-64
2021/07/20 04:10:47;;;;;;;16.45;13.80;;;17.20;99.90;;;;;;5056345;28;20697;-62
2021/07/20 04:13:14;;;;;;;14.70;13.07;;;16.90;99.90;;;;;;5055420;28;20189;-61
2021/07/20 04:15:52;;;;;;;15.55;12.57;;;16.90;99.90;;;;;;5050118;28;20624;-62
2021/07/20 04:18:19;;;;;;;17.50;12.52;;;17.10;99.90;;;;;;5053274;28;20193;-61
2021/07/20 04:20:46;;;;;;;14.20;11.70;;;17.10;99.90;;;;;;5049862;28;20217;-61
2021/07/20 04:23:13;;;;;;;19.58;13.18;;;17.40;99.90;;;;;;5054329;28;20211;-61
2021/07/20 04:25:43;;;;;;;13.48;11.63;;;17.20;99.90;;;;;;5069389;28;20181;-63
2021/07/20 04:28:09;;;;;;;14.52;12.13;;;17.50;99.90;;;;;;5062819;28;20606;-60
2021/07/20 04:30:38;;;;;;;14.60;12.05;;;17.40;99.90;;;;;;5057364;28;21968;-60
2021/07/20 04:33:04;;;;;;;13.60;11.70;;;17.40;99.90;;;;;;5052632;28;20554;-60
2021/07/20 04:35:29;;;;;;;14.20;12.40;;;17.60;99.90;;;;;;5056360;28;20235;-60
2021/07/20 04:37:56;;;;;;;15.00;12.50;;;17.60;99.90;;;;;;5052292;28;20502;-60
2021/07/20 04:40:22;;;;;;;16.40;10.77;;;17.70;99.90;;;;;;5057080;28;20296;-60
2021/07/20 04:42:49;;;;;;;17.48;12.55;;;17.90;99.90;;;;;;5053332;28;20269;-61
2021/07/20 04:45:15;;;;;;;13.23;10.73;;;17.90;99.90;;;;;;5051619;28;20186;-61
2021/07/20 04:47:42;;;;;;;12.07;9.85;;;18.00;99.90;;;;;;5057751;28;20177;-61
2021/07/20 04:50:10;;;;;;;13.50;11.93;;;18.10;99.90;;;;;;5051763;28;20224;-60
2021/07/20 04:52:38;;;;;;;14.35;11.80;;;18.40;99.90;;;;;;5054110;28;20275;-59
2021/07/20 04:55:05;;;;;;;16.92;11.45;;;18.20;99.90;;;;;;5059517;28;20191;-58
2021/07/20 04:57:31;;;;;;;14.40;11.50;;;18.20;99.90;;;;;;5053728;28;20173;-58
2021/07/20 04:59:58;;;;;;;17.70;13.50;;;18.10;99.90;;;;;;5058773;28;20219;-58
2021/07/20 05:02:25;;;;;;;14.43;11.45;;;18.00;99.90;;;;;;5048244;28;20825;-59
2021/07/20 05:04:52;;;;;;;13.52;11.90;;;18.10;99.90;;;;;;5052836;28;20605;-58
2021/07/20 05:07:18;;;;;;;17.13;12.57;;;18.10;99.90;;;;;;5056459;28;20188;-58
2021/07/20 05:09:45;;;;;;;13.23;11.30;;;18.00;99.90;;;;;;5055686;28;20213;-58
2021/07/20 05:12:12;;;;;;;14.95;11.32;;;18.20;99.90;;;;;;5055384;28;20189;-58
2021/07/20 05:14:38;;;;;;;14.40;12.60;;;17.90;99.90;;;;;;5056109;28;20184;-58
2021/07/20 05:17:05;;;;;;;17.93;13.37;;;18.20;99.90;;;;;;5054043;28;20182;-57
2021/07/20 05:19:31;;;;;;;14.20;11.25;;;18.00;99.90;;;;;;5053000;28;20243;-57
2021/07/20 05:21:58;;;;;;;16.53;13.20;;;18.10;99.90;;;;;;5052343;28;20185;-57
2021/07/20 05:24:24;;;;;;;23.15;19.73;;;18.10;99.90;;;;;;5051088;28;20351;-58
2021/07/20 05:26:51;;;;;;;13.40;11.43;;;18.20;99.90;;;;;;5052700;28;20276;-58
2021/07/20 05:29:20;;;;;;;14.18;11.00;;;18.10;99.90;;;;;;5061319;28;20944;-57
2021/07/20 05:31:47;;;;;;;17.17;12.02;;;18.10;99.90;;;;;;5065738;28;20209;-57
2021/07/20 05:34:17;;;;;;;12.68;11.30;;;18.10;99.90;;;;;;5054116;28;20287;-57
2021/07/20 05:36:44;;;;;;;12.88;10.60;;;18.20;99.90;;;;;;5053619;28;20258;-58
2021/07/20 05:39:12;;;;;;;14.98;11.40;;;18.30;99.90;;;;;;5051811;28;20741;-57
2021/07/20 05:41:41;;;;;;;13.50;11.60;;;18.40;99.90;;;;;;5056469;28;20193;-58
2021/07/20 05:44:11;;;;;;;15.15;11.10;;;18.40;99.90;;;;;;5059725;28;20267;-58
2021/07/20 05:46:39;;;;;;;11.85;10.65;;;18.50;99.90;;;;;;5064007;28;20203;-57
2021/07/20 05:49:05;;;;;;;13.30;10.65;;;18.40;99.90;;;;;;5062218;28;20346;-57
2021/07/20 05:51:32;;;;;;;16.30;13.30;;;18.40;99.90;;;;;;5056709;28;20197;-57
2021/07/20 05:53:59;;;;;;;16.00;11.23;;;18.50;99.90;;;;;;5060650;28;20462;-57
2021/07/20 05:56:33;;;;;;;12.00;10.75;;;18.70;99.90;;;;;;5056802;28;20177;-57
2021/07/20 05:59:00;;;;;;;15.55;11.68;;;18.80;99.90;;;;;;5062151;28;20576;-57
2021/07/20 06:01:29;;;;;;;11.40;10.20;;;18.80;99.90;;;;;;5057026;28;20315;-57
2021/07/20 06:03:57;;;;;;;13.65;10.50;;;18.90;99.90;;;;;;5057198;28;20671;-57
2021/07/20 06:06:27;;;;;;;12.30;11.05;;;18.90;99.90;;;;;;5059878;28;20208;-57
2021/07/20 06:08:59;;;;;;;15.20;11.30;;;19.00;99.90;;;;;;5050323;28;20647;-59
2021/07/20 06:11:27;;;;;;;16.85;11.00;;;19.00;99.90;;;;;;5090630;28;20224;-57
2021/07/20 06:13:53;;;;;;;11.95;9.90;;;19.10;99.90;;;;;;5059040;28;20170;-57
2021/07/20 06:16:24;;;;;;;11.73;10.52;;;19.20;99.90;;;;;;5050800;28;20235;-55
2021/07/20 06:18:50;;;;;;;11.85;10.25;;;19.20;99.90;;;;;;5059270;28;20182;-55
2021/07/20 06:21:19;;;;;;;11.20;9.65;;;19.20;99.90;;;;;;5052065;28;20212;-56
2021/07/20 06:23:47;;;;;;;16.10;12.15;;;19.20;99.90;;;;;;5057646;28;20200;-56
2021/07/20 06:26:25;;;;;;;14.35;11.80;;;19.30;99.90;;;;;;5055799;28;20185;-57
2021/07/20 06:28:59;;;;;;;12.27;11.07;;;19.40;99.90;;;;;;5060794;28;20624;-56
2021/07/20 06:31:26;;;;;;;11.25;10.00;;;19.40;99.90;;;;;;5063040;28;20723;-56
2021/07/20 06:33:55;;;;;;;15.07;10.93;;;19.40;99.90;;;;;;5057836;28;20181;-56
2021/07/20 06:36:22;;;;;;;13.95;10.77;;;19.40;99.90;;;;;;5051153;28;20212;-56
2021/07/20 06:38:49;;;;;;;12.50;9.38;;;19.40;99.90;;;;;;5057402;28;20668;-57
2021/07/20 06:41:17;;;;;;;13.50;9.98;;;19.70;99.90;;;;;;5055913;28;20296;-57
2021/07/20 06:43:43;;;;;;;15.77;11.80;;;20.00;99.90;;;;;;5054583;28;20665;-56
2021/07/20 06:46:10;;;;;;;14.88;10.55;;;19.80;99.90;;;;;;5062412;28;20236;-57
2021/07/20 06:48:44;;;;;;;13.75;10.50;;;20.00;99.90;;;;;;5055848;28;20547;-57
2021/07/20 06:51:10;;;;;;;14.63;11.02;;;20.20;99.90;;;;;;5050486;28;20228;-57
2021/07/20 06:53:37;;;;;;;11.57;9.63;;;20.50;99.90;;;;;;5059542;28;20268;-57
2021/07/20 06:56:06;;;;;;;14.38;10.20;;;20.90;99.90;;;;;;5055825;28;20541;-56
2021/07/20 06:58:34;;;;;;;13.10;10.50;;;21.40;98.90;;;;;;5051757;28;20165;-57
2021/07/20 07:01:01;;;;;;;11.50;9.23;;;22.20;97.90;;;;;;5079740;28;20494;-58
2021/07/20 07:03:47;;;;;;;10.83;8.83;;;22.40;96.40;;;;;;5053102;28;20440;-57
2021/07/20 07:06:16;;;;;;;17.27;15.30;;;22.60;95.20;;;;;;5054939;28;20435;-58
2021/07/20 07:08:42;;;;;;;11.33;9.63;;;22.60;95.50;;;;;;5060729;28;20434;-57
2021/07/20 07:11:07;;;;;;;10.93;9.30;;;22.60;95.00;;;;;;5058972;28;21015;-57
2021/07/20 07:13:35;;;;;;;10.53;9.30;;;22.90;95.20;;;;;;5048142;28;20466;-57
2021/07/20 07:16:01;;;;;;;11.37;9.60;;;24.30;93.20;;;;;;5051972;28;20181;-55
2021/07/20 07:18:28;;;;;;;10.83;9.70;;;26.10;90.70;;;;;;5065940;28;20459;-58
2021/07/20 07:20:56;;;;;;;11.53;9.57;;;27.60;83.80;;;;;;5062412;28;20517;-56
2021/07/20 07:23:22;;;;;;;10.73;9.70;;;28.70;77.90;;;;;;5064971;28;20530;-57
2021/07/20 07:25:54;;;;;;;9.77;8.77;;;27.70;77.30;;;;;;5056825;28;20446;-57
2021/07/20 07:28:21;;;;;;;10.07;8.97;;;29.10;74.60;;;;;;5061333;28;20443;-56
2021/07/20 07:30:51;;;;;;;9.80;8.90;;;29.90;71.20;;;;;;5060999;28;20475;-57
2021/07/20 07:33:18;;;;;;;10.33;9.43;;;31.20;65.10;;;;;;5055887;28;20443;-56
2021/07/20 07:35:48;;;;;;;10.27;9.13;;;30.30;62.70;;;;;;5059371;28;20451;-56
2021/07/20 07:38:17;;;;;;;10.20;8.23;;;30.10;65.30;;;;;;5064582;28;20948;-57
2021/07/20 07:40:49;;;;;;;9.80;8.40;;;31.20;61.00;;;;;;5061248;28;20996;-56
2021/07/20 07:43:15;;;;;;;10.33;8.70;;;31.00;61.60;;;;;;5063222;28;20442;-57
2021/07/20 07:45:43;;;;;;;11.10;9.93;;;31.90;59.70;;;;;;5065326;28;21004;-59
2021/07/20 07:48:12;;;;;;;10.47;9.23;;;32.40;57.90;;;;;;5058097;28;20497;-57
2021/07/20 07:50:38;;;;;;;11.07;10.07;;;30.50;60.30;;;;;;5059835;28;20471;-55
2021/07/20 07:53:04;;;;;;;9.80;9.00;;;29.90;63.50;;;;;;5064191;28;20427;-58
2021/07/20 07:55:31;;;;;;;10.10;8.80;;;31.30;60.00;;;;;;5060436;28;20643;-56
2021/07/20 07:57:57;;;;;;;10.30;9.30;;;31.20;59.30;;;;;;5061732;28;20944;-56
2021/07/20 08:00:29;;;;;;;13.23;9.27;;;30.60;60.40;;;;;;5068961;28;20469;-56
2021/07/20 08:02:58;;;;;;;9.13;8.30;;;30.90;59.90;;;;;;5065659;28;20447;-57
2021/07/20 08:05:24;;;;;;;9.90;9.00;;;30.90;60.40;;;;;;5063169;28;20454;-56
2021/07/20 08:07:52;;;;;;;10.27;8.60;;;32.30;58.30;;;;;;5064659;28;20438;-56
2021/07/20 08:10:19;;;;;;;9.70;8.70;;;33.10;56.00;;;;;;5061649;28;20561;-58
2021/07/20 08:12:46;;;;;;;9.27;8.40;;;32.90;54.00;;;;;;5058330;28;20686;-56
2021/07/20 08:15:14;;;;;;;9.10;8.30;;;33.00;54.30;;;;;;5064263;28;20470;-57
2021/07/20 08:17:40;;;;;;;9.37;8.57;;;33.60;52.90;;;;;;5058592;28;20497;-58
2021/07/20 08:20:07;;;;;;;11.00;9.90;;;34.00;52.80;;;;;;5066718;28;20971;-57
2021/07/20 08:22:34;;;;;;;9.93;9.13;;;33.90;52.10;;;;;;5058082;28;20435;-57
2021/07/20 08:25:08;;;;;;;9.50;8.60;;;33.10;52.40;;;;;;5063843;28;20443;-59
2021/07/20 08:27:51;;;;;;;9.40;8.50;;;33.60;53.10;;;;;;5059388;28;20490;-58
2021/07/20 08:30:18;;;;;;;8.93;8.00;;;34.50;51.00;;;;;;5060306;28;21014;-57
2021/07/20 08:32:58;;;;;;;9.20;8.30;;;34.60;49.80;;;;;;5067105;28;20874;-57
2021/07/20 08:35:29;;;;;;;10.50;9.50;;;33.80;49.90;;;;;;5061652;28;20983;-57
2021/07/20 08:38:00;;;;;;;9.83;8.83;;;32.20;52.00;;;;;;5064330;28;20439;-57
2021/07/20 08:40:49;;;;;;;8.63;7.73;;;32.50;52.80;;;;;;5050881;28;20474;-56
2021/07/20 08:43:46;;;;;;;8.27;7.47;;;33.90;50.60;;;;;;5059594;28;20442;-57
2021/07/20 08:46:21;;;;;;;8.00;7.30;;;34.00;49.70;;;;;;5054194;28;20435;-58
2021/07/20 08:49:23;;;;;;;8.90;8.10;;;33.80;48.00;;;;;;5055877;28;20873;-57
2021/07/20 08:52:14;;;;;;;8.07;7.27;;;34.20;48.90;;;;;;5059402;28;20490;-58
2021/07/20 08:54:56;;;;;;;9.30;8.40;;;34.10;49.10;;;;;;5063323;28;20531;-58
2021/07/20 08:57:36;;;;;;;8.73;8.03;;;34.10;49.10;;;;;;5057189;28;20581;-58
2021/07/20 09:00:14;;;;;;;8.90;8.10;;;33.70;49.70;;;;;;5056421;28;20996;-57
2021/07/20 09:02:40;;;;;;;8.40;7.60;;;32.90;49.80;;;;;;5056327;28;20542;-58
2021/07/20 09:05:09;;;;;;;9.60;8.70;;;32.20;51.00;;;;;;5064040;28;20526;-57
2021/07/20 09:07:40;;;;;;;8.97;8.17;;;32.40;51.50;;;;;;5061593;28;20181;-57
2021/07/20 09:10:11;;;;;;;11.57;9.30;;;33.50;50.60;;;;;;5053658;28;20499;-55
2021/07/20 09:12:41;;;;;;;9.80;8.90;;;33.00;50.10;;;;;;5057787;28;20474;-55
2021/07/20 09:15:08;;;;;;;16.43;10.27;;;32.40;50.70;;;;;;5055680;28;21113;-55
2021/07/20 09:18:08;;;;;;;9.80;8.90;;;31.70;51.40;;;;;;5054532;28;21016;-55
2021/07/20 09:20:36;;;;;;;9.97;9.07;;;30.80;54.50;;;;;;5053636;28;20473;-55
2021/07/20 09:23:23;;;;;;;10.13;8.50;;;31.00;54.30;;;;;;5053389;28;20438;-55
2021/07/20 09:25:56;;;;;;;10.93;9.83;;;30.60;54.20;;;;;;5059709;28;20433;-56
2021/07/20 09:28:38;;;;;;;9.13;8.33;;;29.30;55.90;;;;;;5057576;28;20443;-55
2021/07/20 09:31:17;;;;;;;11.53;9.53;;;29.00;58.20;;;;;;5055170;28;20475;-55
2021/07/20 09:34:08;;;;;;;11.20;9.63;;;29.80;56.70;;;;;;5055878;28;20947;-56
2021/07/20 09:36:59;;;;;;;10.90;9.80;;;30.50;54.70;;;;;;5060231;28;20593;-56
2021/07/20 09:39:43;;;;;;;10.60;9.60;;;30.90;54.60;;;;;;5013861;28;20505;-55
2021/07/20 09:42:28;;;;;;;10.63;9.60;;;31.10;54.20;;;;;;5052093;28;20541;-56
2021/07/20 09:45:05;;;;;;;12.00;10.30;;;31.70;53.20;;;;;;5062594;28;20450;-56
2021/07/20 09:48:03;;;;;;;11.50;9.93;;;31.40;53.10;;;;;;5055087;28;20485;-55
2021/07/20 09:50:35;;;;;;;9.67;8.73;;;31.30;53.60;;;;;;5030082;28;20478;-55
2021/07/20 09:53:27;;;;;;;10.67;9.27;;;31.30;54.10;;;;;;5051463;28;20892;-56
2021/07/20 09:55:58;;;;;;;11.83;10.70;;;31.20;54.00;;;;;;5056700;28;20451;-55
2021/07/20 09:58:44;;;;;;;12.50;11.20;;;30.50;54.40;;;;;;5062447;28;20437;-56
2021/07/20 10:01:31;;;;;;;10.60;9.63;;;31.00;54.10;;;;;;5064601;28;20474;-56
2021/07/20 10:04:07;;;;;;;11.23;10.00;;;31.90;52.20;;;;;;5063789;28;20443;-56
2021/07/20 10:06:36;;;;;;;12.10;10.53;;;32.50;50.70;;;;;;5056067;28;20908;-55
2021/07/20 10:09:17;;;;;;;11.90;10.70;;;32.00;52.00;;;;;;5065355;28;20449;-55
2021/07/20 10:12:22;;;;;;;11.73;10.57;;;32.80;50.90;;;;;;5053375;28;20912;-56
2021/07/20 10:14:58;;;;;;;12.47;11.33;;;34.30;48.30;;;;;;4989070;28;20430;-55
2021/07/20 10:17:30;;;;;;;11.43;10.33;;;34.60;47.60;;;;;;4998058;28;20434;-55
2021/07/20 10:20:13;;;;;;;11.27;10.20;;;34.30;47.40;;;;;;5021437;28;20505;-56
2021/07/20 10:22:54;;;;;;;11.63;10.57;;;34.30;48.10;;;;;;5054400;28;20987;-56
2021/07/20 10:25:25;;;;;;;10.87;9.87;;;34.50;47.00;;;;;;5058149;28;20439;-56
2021/07/20 10:28:18;;;;;;;11.43;10.40;;;34.80;47.10;;;;;;5062576;28;20443;-56
2021/07/20 10:30:52;;;;;;;12.30;10.87;;;34.00;47.70;;;;;;5052552;28;20464;-55
2021/07/20 10:33:25;;;;;;;11.50;10.50;;;33.20;48.50;;;;;;5056417;28;20427;-56
2021/07/20 10:36:00;;;;;;;11.37;10.27;;;31.50;51.80;;;;;;5052909;28;20454;-55
2021/07/20 10:38:41;;;;;;;11.70;10.50;;;30.80;53.70;;;;;;5053924;28;20435;-55
2021/07/20 10:41:09;;;;;;;11.83;10.63;;;30.40;54.40;;;;;;5058181;28;20463;-55
2021/07/20 10:43:40;;;;;;;11.10;10.00;;;29.80;55.30;;;;;;5061008;28;20538;-55
2021/07/20 10:46:08;;;;;;;12.40;11.10;;;29.10;56.50;;;;;;5064320;28;20442;-56
2021/07/20 10:48:40;;;;;;;11.03;9.97;;;28.20;58.00;;;;;;5055008;28;20709;-56
2021/07/20 10:51:22;;;;;;;13.17;11.77;;;28.10;59.30;;;;;;5065276;28;20473;-55
2021/07/20 10:54:06;;;;;;;11.77;10.67;;;28.40;58.60;;;;;;5052654;28;20428;-56
2021/07/20 10:56:54;;;;;;;11.90;10.50;;;29.10;57.20;;;;;;5062826;28;20437;-56
2021/07/20 11:00:10;;;;;;;12.57;11.27;;;29.10;57.40;;;;;;5063274;28;20439;-56
2021/07/20 11:02:55;;;;;;;11.60;10.40;;;29.10;57.60;;;;;;5044965;28;20432;-55
2021/07/20 11:05:21;;;;;;;11.80;10.40;;;29.20;56.80;;;;;;5061878;28;20439;-56
2021/07/20 11:08:02;;;;;;;11.63;10.53;;;28.70;58.00;;;;;;5068575;28;20427;-56
2021/07/20 11:10:50;;;;;;;13.50;10.13;;;28.50;58.50;;;;;;5054568;28;20896;-56
2021/07/20 11:13:30;;;;;;;10.70;9.60;;;28.50;58.60;;;;;;5064510;28;20553;-57
2021/07/20 11:15:59;;;;;;;14.93;11.00;;;28.50;58.40;;;;;;5056459;28;20436;-58
2021/07/20 11:18:31;;;;;;;11.20;9.60;;;28.20;58.70;;;;;;5062655;28;20439;-58
2021/07/20 11:21:00;;;;;;;11.17;10.07;;;28.70;57.80;;;;;;5057605;28;20623;-58
2021/07/20 11:23:31;;;;;;;11.23;9.87;;;29.40;57.00;;;;;;5058927;28;20823;-58
2021/07/20 11:25:58;;;;;;;11.27;10.27;;;29.80;54.80;;;;;;5057610;28;20444;-57
2021/07/20 11:28:25;;;;;;;11.77;10.67;;;30.50;54.80;;;;;;5053527;28;20539;-58
2021/07/20 11:30:55;;;;;;;11.60;10.50;;;31.40;53.30;;;;;;5057568;28;21022;-60
2021/07/20 11:33:24;;;;;;;11.60;10.50;;;30.70;54.20;;;;;;5059234;28;20608;-59
2021/07/20 11:35:55;;;;;;;11.67;10.60;;;31.70;53.60;;;;;;5061465;28;20995;-58
2021/07/20 11:38:24;;;;;;;12.47;11.27;;;31.90;52.60;;;;;;5058012;28;20432;-59
2021/07/20 11:40:59;;;;;;;12.63;11.43;;;32.00;52.10;;;;;;5055802;28;20470;-57
2021/07/20 11:43:37;;;;;;;11.63;10.13;;;31.10;52.50;;;;;;5064588;28;20445;-59
2021/07/20 11:46:09;;;;;;;12.97;11.30;;;30.20;53.50;;;;;;5062005;28;20470;-57
2021/07/20 11:48:50;;;;;;;12.67;11.20;;;29.40;55.20;;;;;;5061762;28;20447;-57
2021/07/20 11:51:50;;;;;;;11.57;10.47;;;28.70;56.70;;;;;;5051916;28;20477;-57
2021/07/20 11:54:36;;;;;;;11.40;10.30;;;28.70;57.20;;;;;;5050050;28;20442;-58
2021/07/20 11:57:22;;;;;;;11.30;10.20;;;28.90;56.10;;;;;;5057963;28;20993;-57
2021/07/20 12:00:13;;;;;;;11.87;10.57;;;28.80;56.00;;;;;;5057872;28;20515;-58
2021/07/20 12:03:06;;;;;;;10.90;9.90;;;28.50;55.70;;;;;;5063336;28;20508;-59
2021/07/20 12:05:56;;;;;;;13.37;11.13;;;28.00;57.20;;;;;;5064898;28;20440;-58
2021/07/20 12:08:46;;;;;;;11.57;10.47;;;28.00;57.50;;;;;;5053118;28;20942;-58
2021/07/20 12:11:18;;;;;;;12.30;11.10;;;28.10;56.90;;;;;;5058407;28;20504;-56
2021/07/20 12:13:44;;;;;;;11.50;10.33;;;27.90;58.40;;;;;;5068501;28;20652;-57
2021/07/20 12:16:11;;;;;;;11.60;10.53;;;27.80;59.00;;;;;;5054504;28;20510;-57
2021/07/20 12:18:48;;;;;;;11.60;10.50;;;28.00;57.50;;;;;;5067853;28;20641;-57
2021/07/20 12:21:19;;;;;;;12.50;11.20;;;28.00;57.60;;;;;;5074475;28;20460;-58
2021/07/20 12:23:46;;;;;;;16.60;11.23;;;27.60;58.00;;;;;;5064177;28;20493;-58
2021/07/20 12:26:12;;;;;;;11.73;10.53;;;27.50;58.70;;;;;;5053707;28;20936;-57
2021/07/20 12:28:42;;;;;;;11.53;10.37;;;27.40;58.30;;;;;;5060211;28;20432;-58
2021/07/20 12:31:09;;;;;;;11.93;10.17;;;27.40;58.50;;;;;;5059942;28;20468;-58
2021/07/20 12:33:35;;;;;;;11.13;9.50;;;27.40;58.70;;;;;;5058460;28;20437;-56
2021/07/20 12:36:03;;;;;;;11.77;10.50;;;27.40;58.00;;;;;;5055231;28;20452;-57
2021/07/20 12:38:33;;;;;;;11.60;10.10;;;27.50;57.50;;;;;;5054231;28;20284;-57
2021/07/20 12:41:07;;;;;;;12.20;10.90;;;27.30;56.90;;;;;;5057318;28;20562;-57
2021/07/20 12:43:32;;;;;;;12.50;11.20;;;27.20;58.10;;;;;;5060557;28;21012;-57
2021/07/20 12:46:12;;;;;;;11.90;10.67;;;26.90;58.50;;;;;;5061985;28;20443;-58
2021/07/20 12:48:46;;;;;;;12.30;9.57;;;26.90;59.00;;;;;;5056914;28;20181;-57
2021/07/20 12:51:13;;;;;;;11.30;10.27;;;27.00;58.10;;;;;;5061071;28;20478;-57
2021/07/20 12:53:40;;;;;;;13.37;10.60;;;26.90;58.90;;;;;;5052227;28;20443;-57
2021/07/20 12:56:09;;;;;;;11.23;10.20;;;26.80;59.70;;;;;;5059488;28;20447;-58